Time;durP1;ratioP1;P1;durP2;ratioP2;P2;SDS_P1;SDS_P2;PMS_P1;PMS_P2;Temp;Humidity;BMP_temperature;BMP_pressure;BME280_temperature;BME280_humidity;BME280_pressure;Samples;Min_cycle;Max_cycle;Signal;HPM_P1;HPM_P2
2022/06/05 00:01:50;;;;;;;19.57;16.10;;;;;;;15.76;78.11;97532.85;1768747;80;25800;-77
2022/06/05 00:04:45;;;;;;;18.62;16.82;;;;;;;15.74;78.19;97528.17;1770261;80;25716;-78
2022/06/05 00:07:29;;;;;;;18.48;16.57;;;;;;;15.75;78.25;97522.20;1767526;80;27512;-78
2022/06/05 00:10:23;;;;;;;17.77;15.18;;;;;;;15.76;78.29;97519.78;1768447;80;26503;-80
2022/06/05 00:13:10;;;;;;;17.62;15.72;;;;;;;15.74;78.34;97519.19;1770205;80;25748;-83
2022/06/05 00:15:37;;;;;;;18.00;16.10;;;;;;;15.70;78.40;97513.92;1769966;80;26283;-81
2022/06/05 00:18:04;;;;;;;21.20;16.52;;;;;;;15.71;78.52;97515.58;1768400;80;25634;-80
2022/06/05 00:20:31;;;;;;;21.15;18.87;;;;;;;15.69;78.52;97518.56;1769386;80;27330;-77
2022/06/05 00:22:58;;;;;;;19.40;17.42;;;;;;;15.71;78.55;97519.66;1768624;80;26446;-79
2022/06/05 00:25:33;;;;;;;19.92;17.73;;;;;;;15.69;78.55;97521.29;1772219;80;26724;-81
2022/06/05 00:28:11;;;;;;;19.82;17.73;;;;;;;15.68;78.61;97521.52;1768731;80;26100;-77
2022/06/05 00:31:15;;;;;;;20.45;18.30;;;;;;;15.68;78.64;97524.25;1768486;80;25739;-82
2022/06/05 00:33:42;;;;;;;18.98;16.73;;;;;;;15.70;78.61;97531.61;1765230;80;27527;-82
2022/06/05 00:36:45;;;;;;;19.90;17.80;;;;;;;15.71;78.58;97538.70;1771761;80;25657;-79
2022/06/05 00:39:26;;;;;;;20.25;17.95;;;;;;;15.70;78.63;97534.33;1770891;80;25835;-78
2022/06/05 00:42:03;;;;;;;20.82;17.95;;;;;;;15.71;78.64;97529.19;1765046;80;25700;-79
2022/06/05 00:44:44;;;;;;;23.27;19.23;;;;;;;15.70;78.64;97532.97;1768117;80;25720;-78
2022/06/05 00:47:15;;;;;;;23.27;19.00;;;;;;;15.71;78.67;97526.46;1766327;80;27417;-78
2022/06/05 00:49:50;;;;;;;24.40;19.45;;;;;;;15.71;78.77;97529.19;1770650;80;25621;-78
2022/06/05 00:52:19;;;;;;;20.88;18.45;;;;;;;15.72;78.76;97530.84;1764507;80;25887;-78
2022/06/05 00:54:46;;;;;;;20.32;17.85;;;;;;;15.70;78.80;97532.44;1771860;80;25747;-77
2022/06/05 00:57:14;;;;;;;19.20;17.25;;;;;;;15.69;78.83;97532.70;1766238;80;25758;-77
2022/06/05 00:59:44;;;;;;;20.12;18.02;;;;;;;15.70;78.90;97534.33;1766870;80;28514;-81
2022/06/05 01:02:12;;;;;;;19.85;17.70;;;;;;;15.70;78.90;97531.61;1771113;80;25832;-78
2022/06/05 01:04:43;;;;;;;20.88;17.17;;;;;;;15.72;78.88;97532.20;1774598;80;25645;-78
2022/06/05 01:07:10;;;;;;;19.82;17.65;;;;;;;15.73;78.88;97538.77;1766807;80;25804;-79
2022/06/05 01:09:40;;;;;;;19.52;16.95;;;;;;;15.74;78.85;97535.52;1770346;80;25852;-79
2022/06/05 01:12:12;;;;;;;20.00;17.90;;;;;;;15.75;78.90;97538.53;1766496;80;27474;-78
2022/06/05 01:14:56;;;;;;;20.02;17.90;;;;;;;15.72;78.96;97537.11;1763669;80;32909;-77
2022/06/05 01:17:37;;;;;;;21.65;18.07;;;;;;;15.68;79.04;97529.69;1771760;80;25733;-82
2022/06/05 01:20:25;;;;;;;20.80;17.55;;;;;;;15.69;79.08;97528.62;1773428;80;25778;-78
2022/06/05 01:23:28;;;;;;;19.25;17.20;;;;;;;15.69;79.12;97527.27;1774870;80;25682;-79
2022/06/05 01:26:09;;;;;;;18.85;17.00;;;;;;;15.64;79.23;97525.78;1762073;80;27441;-81
2022/06/05 01:28:40;;;;;;;20.77;17.65;;;;;;;15.58;79.33;97537.64;1769063;80;25781;-76
2022/06/05 01:31:29;;;;;;;20.02;17.92;;;;;;;15.54;79.37;97534.53;1654928;84;25775;-78
2022/06/05 01:34:01;;;;;;;20.02;17.95;;;;;;;15.53;79.37;97532.88;1628478;87;25804;-79
2022/06/05 01:36:51;;;;;;;20.50;18.17;;;;;;;15.54;79.39;97533.17;1620842;87;26816;-78
2022/06/05 01:39:44;;;;;;;22.15;19.07;;;;;;;15.55;79.39;97525.88;1595039;88;27345;-78
2022/06/05 01:42:21;;;;;;;;;;;;;;;15.56;79.46;97526.17;1603175;88;25785;-80
2022/06/05 01:44:51;;;;;;;19.80;17.75;;;;;;;15.56;79.60;97523.45;1564339;90;25897;-79
2022/06/05 01:47:32;;;;;;;22.75;18.35;;;;;;;15.55;79.55;97523.15;1561334;90;26569;-78
2022/06/05 01:50:12;;;;;;;20.57;18.37;;;;;;;15.55;79.49;97525.88;1562086;91;25742;-77
2022/06/05 01:52:55;;;;;;;21.60;19.30;;;;;;;15.55;79.50;97520.44;1559485;90;27675;-78
2022/06/05 01:55:27;;;;;;;;;;;;;;;15.55;79.48;97521.80;1564920;90;26018;-77
2022/06/05 01:57:57;;;;;;;22.73;19.80;;;;;;;15.55;79.66;97521.26;1563031;90;26001;-79
2022/06/05 02:00:24;;;;;;;20.97;18.77;;;;;;;15.53;79.63;97526.61;1561219;90;25732;-78
2022/06/05 02:03:05;;;;;;;23.85;19.27;;;;;;;15.51;79.65;97526.84;1560804;90;25949;-80
2022/06/05 02:05:43;;;;;;;21.52;19.10;;;;;;;15.50;79.71;97528.73;1562751;90;27618;-80
2022/06/05 02:08:38;;;;;;;20.75;18.65;;;;;;;15.52;79.74;97537.19;1511474;94;25876;-79
2022/06/05 02:11:23;;;;;;;22.45;18.30;;;;;;;15.53;79.76;97537.49;1486706;95;25859;-78
2022/06/05 02:13:57;;;;;;;22.98;19.70;;;;;;;15.54;79.80;97539.97;1496994;93;26348;-79
2022/06/05 02:16:26;;;;;;;24.70;20.43;;;;;;;15.55;79.81;97531.31;1514561;93;25370;-83
2022/06/05 02:18:53;;;;;;;22.13;19.40;;;;;;;15.58;79.79;97534.92;1514846;93;28210;-78
2022/06/05 02:21:20;;;;;;;22.52;19.92;;;;;;;15.58;79.77;97530.84;1514059;94;25921;-77
2022/06/05 02:23:46;;;;;;;23.00;19.90;;;;;;;15.59;79.75;97528.39;1512193;94;26049;-78
2022/06/05 02:26:13;;;;;;;24.82;19.55;;;;;;;15.60;79.72;97519.16;1511808;94;25825;-79
2022/06/05 02:28:40;;;;;;;23.42;19.77;;;;;;;15.61;79.77;97525.73;1511894;94;25842;-82
2022/06/05 02:31:59;;;;;;;22.93;19.80;;;;;;;15.63;79.80;97519.52;1514873;93;27510;-78
2022/06/05 02:34:46;;;;;;;22.22;19.90;;;;;;;15.63;79.77;97518.69;1516054;91;25995;-79
2022/06/05 02:37:36;;;;;;;22.82;20.30;;;;;;;15.62;79.79;97519.75;1492298;93;25901;-78
2022/06/05 02:40:16;;;;;;;23.62;21.17;;;;;;;15.60;79.75;97517.80;1518963;92;26912;-79
2022/06/05 02:42:51;;;;;;;24.45;21.85;;;;;;;15.60;79.78;97520.52;1591995;88;25292;-80
2022/06/05 02:45:40;;;;;;;25.23;21.40;;;;;;;15.60;79.79;97520.52;1599091;89;27493;-78
2022/06/05 02:48:30;;;;;;;22.73;19.87;;;;;;;15.62;79.76;97522.47;1596362;89;25783;-79
2022/06/05 02:51:19;;;;;;;25.88;22.27;;;;;;;15.62;79.78;97522.47;1597726;88;25840;-78
2022/06/05 02:53:53;;;;;;;25.60;21.42;;;;;;;15.64;79.82;97535.31;1596841;88;26159;-79
2022/06/05 02:56:21;;;;;;;21.82;19.52;;;;;;;15.67;79.76;97541.64;1568813;91;26010;-80
2022/06/05 02:58:50;;;;;;;23.05;20.52;;;;;;;15.64;79.71;97544.30;1560059;90;28229;-78
2022/06/05 03:04:07;;;;;;;22.65;20.25;;;;;;;15.60;79.78;97540.92;1591796;85;25864;-78
2022/06/05 03:06:33;;;;;;;20.25;18.10;;;;;;;15.61;79.84;97548.02;1682666;85;25843;-82
2022/06/05 03:09:00;;;;;;;20.55;18.45;;;;;;;15.61;79.77;97548.02;1683664;84;25916;-78
2022/06/05 03:11:27;;;;;;;21.37;18.98;;;;;;;15.60;79.70;97547.20;1683789;84;27691;-78
2022/06/05 03:13:53;;;;;;;22.55;19.20;;;;;;;15.59;79.73;97546.07;1725146;82;25722;-78
2022/06/05 03:16:20;;;;;;;20.20;18.00;;;;;;;15.58;79.74;97549.89;1722037;82;25623;-78
2022/06/05 03:18:46;;;;;;;19.73;17.67;;;;;;;15.59;79.77;97550.16;1719725;82;25870;-78
2022/06/05 03:21:13;;;;;;;20.37;18.20;;;;;;;15.60;79.82;97555.89;1718686;82;26068;-78
2022/06/05 03:23:40;;;;;;;22.40;18.20;;;;;;;15.59;79.87;97550.98;1720740;83;27417;-78
2022/06/05 03:26:11;;;;;;;21.45;19.17;;;;;;;15.60;79.89;97553.17;1717165;82;26140;-81
2022/06/05 03:28:39;;;;;;;20.92;18.73;;;;;;;15.60;79.87;97550.45;1770041;79;25620;-77
2022/06/05 03:31:08;;;;;;;21.23;18.62;;;;;;;15.62;79.94;97550.51;1772021;80;25776;-79
2022/06/05 03:33:37;;;;;;;22.65;20.00;;;;;;;15.62;79.87;97551.88;1768739;80;26191;-77
2022/06/05 03:36:10;;;;;;;21.80;19.50;;;;;;;15.62;79.82;97552.41;1768293;80;27412;-78
2022/06/05 03:38:38;;;;;;;22.02;18.92;;;;;;;15.63;79.85;97553.53;1712032;82;25917;-78
2022/06/05 03:41:05;;;;;;;23.32;19.00;;;;;;;15.65;79.80;97556.02;1716796;82;25816;-79
2022/06/05 03:43:32;;;;;;;21.85;19.42;;;;;;;15.61;79.77;97556.19;1715542;82;25867;-77
2022/06/05 03:46:09;;;;;;;20.48;18.32;;;;;;;15.61;79.79;97556.19;1728034;82;26011;-77
2022/06/05 03:48:36;;;;;;;21.23;19.05;;;;;;;15.60;79.78;97559.97;1723721;82;27429;-77
2022/06/05 03:51:17;;;;;;;20.50;18.40;;;;;;;15.60;79.77;97552.64;1720471;82;25793;-78
2022/06/05 03:53:44;;;;;;;21.23;18.85;;;;;;;15.59;79.76;97563.76;1687482;84;25802;-78
2022/06/05 03:56:15;;;;;;;20.23;18.05;;;;;;;15.58;79.77;97565.65;1688205;83;26066;-78
2022/06/05 03:58:41;;;;;;;20.85;18.65;;;;;;;15.55;79.79;97562.59;1690618;83;25796;-80
2022/06/05 04:01:11;;;;;;;28.32;22.40;;;;;;;15.55;79.89;97559.88;1693277;84;28179;-78
2022/06/05 04:03:38;;;;;;;25.23;21.82;;;;;;;15.61;79.94;97567.07;1635260;86;25863;-79
2022/06/05 04:06:11;;;;;;;25.90;22.58;;;;;;;15.66;79.90;97563.94;1623103;86;25877;-77
2022/06/05 04:08:39;;;;;;;26.10;22.02;;;;;;;15.70;79.88;97562.91;1633014;86;25788;-78
2022/06/05 04:11:08;;;;;;;27.15;21.80;;;;;;;15.68;79.82;97558.27;1626313;86;25647;-77
2022/06/05 04:13:35;;;;;;;25.97;21.90;;;;;;;15.68;79.94;97563.17;1629587;86;27477;-79
2022/06/05 04:16:11;;;;;;;28.07;20.57;;;;;;;15.72;79.93;97565.69;1645312;86;25832;-79
2022/06/05 04:18:39;;;;;;;28.35;22.15;;;;;;;15.74;79.96;97572.25;1650329;85;25876;-80
2022/06/05 04:21:08;;;;;;;27.00;21.02;;;;;;;15.78;79.95;97574.80;1637578;86;26079;-75
2022/06/05 04:23:35;;;;;;;24.77;20.43;;;;;;;15.80;79.96;97570.78;1629695;86;25836;-75
2022/06/05 04:26:02;;;;;;;26.60;20.88;;;;;;;15.83;79.92;97570.27;1623061;86;26926;-75
2022/06/05 04:28:29;;;;;;;22.75;19.82;;;;;;;15.84;79.90;97572.46;1627892;86;25778;-75
2022/06/05 04:30:55;;;;;;;24.98;20.10;;;;;;;15.88;79.90;97575.00;1634004;86;25883;-76
2022/06/05 04:33:22;;;;;;;28.02;20.27;;;;;;;15.87;79.85;97576.60;1635324;86;26122;-78
2022/06/05 04:35:48;;;;;;;24.07;19.77;;;;;;;15.88;79.80;97572.81;1643837;85;25810;-75
2022/06/05 04:38:15;;;;;;;22.82;19.12;;;;;;;15.91;79.82;97576.42;1653963;86;27512;-76
2022/06/05 04:40:42;;;;;;;22.77;18.70;;;;;;;15.94;79.75;97567.22;1652327;86;25902;-74
2022/06/05 04:43:08;;;;;;;21.77;18.40;;;;;;;15.98;79.70;97570.30;1652302;86;25935;-75
2022/06/05 04:45:36;;;;;;;21.10;18.45;;;;;;;16.01;79.66;97569.82;1652432;85;25821;-76
2022/06/05 04:48:02;;;;;;;21.12;17.85;;;;;;;16.00;79.51;97571.72;1650804;86;25838;-75
2022/06/05 04:50:29;;;;;;;19.95;16.65;;;;;;;16.01;79.55;97573.38;1675546;84;27514;-75
2022/06/05 04:52:56;;;;;;;17.80;15.90;;;;;;;16.06;79.58;97573.45;1677276;84;25642;-75
2022/06/05 04:55:22;;;;;;;17.62;15.78;;;;;;;16.14;79.45;97576.34;1677287;84;25801;-76
2022/06/05 04:57:49;;;;;;;17.50;15.28;;;;;;;16.18;79.21;97574.23;1676855;84;25978;-75
2022/06/05 05:00:16;;;;;;;16.52;14.80;;;;;;;16.21;79.08;97575.13;1715159;80;25952;-75
2022/06/05 05:02:42;;;;;;;16.48;14.78;;;;;;;16.29;78.99;97575.82;1768346;80;28243;-76
2022/06/05 05:05:09;;;;;;;17.35;15.08;;;;;;;16.32;78.85;97573.95;1776825;80;26383;-75
2022/06/05 05:07:36;;;;;;;17.48;15.68;;;;;;;16.34;78.91;97575.36;1775204;80;25817;-76
2022/06/05 05:10:03;;;;;;;17.32;15.53;;;;;;;16.39;78.83;97578.20;1778488;80;25446;-76
2022/06/05 05:12:30;;;;;;;18.30;16.27;;;;;;;16.43;78.69;97578.52;1780211;79;25599;-75
2022/06/05 05:14:56;;;;;;;16.05;14.20;;;;;;;16.48;78.70;97578.63;1776664;80;27391;-74
2022/06/05 05:17:23;;;;;;;17.95;15.68;;;;;;;16.52;78.55;97579.80;1777431;80;25684;-77
2022/06/05 05:19:50;;;;;;;16.02;14.40;;;;;;;16.55;78.39;97577.92;1778002;80;25731;-75
2022/06/05 05:22:16;;;;;;;16.62;14.93;;;;;;;16.59;78.32;97580.45;1772061;80;25610;-75
2022/06/05 05:24:43;;;;;;;17.05;14.55;;;;;;;16.65;78.18;97586.88;1771242;80;25311;-75
2022/06/05 05:27:10;;;;;;;16.65;15.00;;;;;;;16.67;78.07;97582.80;1771171;80;27604;-75
2022/06/05 05:29:39;;;;;;;16.17;14.47;;;;;;;16.68;77.97;97584.45;1769815;80;25689;-75
2022/06/05 05:32:09;;;;;;;17.25;15.45;;;;;;;16.71;77.98;97585.87;1775213;80;25798;-75
2022/06/05 05:34:37;;;;;;;17.25;15.55;;;;;;;16.75;77.95;97589.77;1723586;82;25886;-74
2022/06/05 05:37:05;;;;;;;17.35;15.55;;;;;;;16.78;77.87;97586.02;1724038;82;25776;-75
2022/06/05 05:42:16;;;;;;;16.77;15.08;;;;;;;16.87;77.76;97589.16;1720882;82;26430;-75
2022/06/05 05:44:49;;;;;;;17.20;15.50;;;;;;;16.88;77.69;97593.01;1726515;82;26059;-74
2022/06/05 05:47:28;;;;;;;17.70;14.98;;;;;;;16.89;77.53;97593.83;1706587;82;25805;-75
2022/06/05 05:49:59;;;;;;;17.80;16.00;;;;;;;16.88;77.50;97591.64;1726288;82;25760;-77
2022/06/05 05:52:28;;;;;;;18.10;16.10;;;;;;;16.81;77.10;97589.59;1721133;82;27617;-74
2022/06/05 05:54:55;;;;;;;18.17;16.23;;;;;;;16.72;77.28;97592.44;1723706;82;25904;-74
2022/06/05 05:57:22;;;;;;;17.50;15.80;;;;;;;16.73;77.50;97594.09;1715284;82;25916;-76
2022/06/05 05:59:49;;;;;;;17.90;16.05;;;;;;;16.76;77.43;97592.25;1728577;82;26114;-76
2022/06/05 06:02:21;;;;;;;17.48;15.72;;;;;;;16.79;77.37;97593.09;1725265;82;25717;-75
2022/06/05 06:04:50;;;;;;;18.17;16.32;;;;;;;16.82;77.42;97589.89;1724860;82;27406;-76
2022/06/05 06:07:17;;;;;;;20.02;16.87;;;;;;;16.84;77.40;97591.84;1723328;82;25983;-78
2022/06/05 06:09:44;;;;;;;18.82;16.93;;;;;;;16.88;77.47;97584.83;1729470;82;25331;-75
2022/06/05 06:12:11;;;;;;;20.15;17.40;;;;;;;16.93;77.46;97590.34;1727545;82;25830;-74
2022/06/05 06:14:40;;;;;;;19.00;16.35;;;;;;;16.97;77.40;97592.05;1711502;82;25929;-74
2022/06/05 06:17:07;;;;;;;19.73;17.70;;;;;;;17.02;77.41;97590.78;1715941;82;27511;-75
2022/06/05 06:19:34;;;;;;;20.08;18.07;;;;;;;17.07;77.39;97594.94;1728383;82;26555;-76
2022/06/05 06:22:01;;;;;;;19.92;17.82;;;;;;;17.12;77.31;97590.12;1721268;82;25846;-74
2022/06/05 06:24:27;;;;;;;19.85;17.80;;;;;;;17.12;77.10;97587.39;1716390;82;26309;-74
2022/06/05 06:26:54;;;;;;;20.37;18.17;;;;;;;17.06;76.86;97587.00;1723598;82;25308;-75
2022/06/05 06:29:20;;;;;;;20.60;18.32;;;;;;;17.02;76.98;97588.06;1726558;82;27646;-74
2022/06/05 06:31:47;;;;;;;19.85;17.75;;;;;;;17.11;77.19;97585.73;1718457;82;26045;-76
2022/06/05 06:34:13;;;;;;;19.80;17.37;;;;;;;17.21;77.38;97582.63;1714400;82;25817;-74
2022/06/05 06:36:41;;;;;;;21.27;19.10;;;;;;;17.32;77.25;97584.97;1721065;82;26440;-74
2022/06/05 06:39:07;;;;;;;20.97;18.87;;;;;;;17.44;77.38;97584.87;1770968;79;26083;-74
2022/06/05 06:41:36;;;;;;;20.82;18.62;;;;;;;17.54;77.34;97585.83;1768525;80;27078;-76
2022/06/05 06:44:03;;;;;;;19.60;17.60;;;;;;;17.53;76.68;97581.98;1773433;80;26234;-78
2022/06/05 06:46:31;;;;;;;20.62;18.30;;;;;;;17.57;76.77;97576.33;1777343;80;25698;-74
2022/06/05 06:48:58;;;;;;;19.55;17.55;;;;;;;17.66;76.63;97580.84;1779131;80;26380;-76
2022/06/05 06:51:25;;;;;;;20.57;18.20;;;;;;;17.76;76.52;97571.41;1778580;80;25679;-74
2022/06/05 06:53:52;;;;;;;21.57;18.10;;;;;;;17.84;76.36;97569.09;1765975;80;27614;-74
2022/06/05 06:56:24;;;;;;;22.75;17.55;;;;;;;17.94;76.18;97572.48;1776412;80;25747;-77
2022/06/05 06:58:50;;;;;;;19.57;17.48;;;;;;;17.99;75.95;97560.27;1755606;81;34948;-74
2022/06/05 07:01:17;;;;;;;19.90;17.12;;;;;;;18.01;75.78;97563.54;1752019;81;26066;-74
2022/06/05 07:03:43;;;;;;;21.73;16.97;;;;;;;18.09;75.72;97558.19;1759204;81;25731;-74
2022/06/05 07:06:13;;;;;;;19.42;17.40;;;;;;;18.17;75.49;97555.81;1744885;81;27570;-74
2022/06/05 07:08:41;;;;;;;20.77;17.98;;;;;;;18.27;75.46;97555.92;1753865;81;25815;-74
2022/06/05 07:11:11;;;;;;;24.63;17.62;;;;;;;18.35;75.08;97551.36;1755871;81;25998;-75
2022/06/05 07:13:38;;;;;;;20.32;18.20;;;;;;;18.44;75.20;97542.72;1752793;81;25848;-74
2022/06/05 07:16:08;;;;;;;20.23;18.23;;;;;;;18.59;75.44;97548.38;1744665;80;25468;-74
2022/06/05 07:18:36;;;;;;;19.35;17.40;;;;;;;18.71;75.41;97543.56;1740916;80;27507;-75
2022/06/05 07:21:16;;;;;;;19.60;17.12;;;;;;;18.85;75.33;97546.66;1747867;80;25789;-75
2022/06/05 07:23:43;;;;;;;18.73;16.60;;;;;;;18.95;75.06;97544.04;1740765;80;25942;-75
2022/06/05 07:26:13;;;;;;;22.25;17.00;;;;;;;19.01;74.63;97541.06;1751021;81;25541;-74
2022/06/05 07:28:40;;;;;;;20.80;16.73;;;;;;;19.08;74.04;97541.66;1740673;81;25891;-75
2022/06/05 07:31:08;;;;;;;19.52;16.00;;;;;;;19.17;73.75;97538.45;1739479;81;27428;-74
2022/06/05 07:33:36;;;;;;;18.37;16.52;;;;;;;19.28;73.66;97536.06;1728495;81;25747;-75
2022/06/05 07:36:06;;;;;;;18.60;16.60;;;;;;;19.38;73.58;97531.47;1715728;82;25714;-74
2022/06/05 07:38:35;;;;;;;17.15;15.43;;;;;;;19.50;73.31;97542.25;1735595;81;25446;-75
2022/06/05 07:41:04;;;;;;;17.30;15.48;;;;;;;19.62;72.85;97541.49;1735765;81;25661;-75
2022/06/05 07:43:32;;;;;;;15.50;13.93;;;;;;;19.73;72.41;97541.00;1720832;81;27621;-75
2022/06/05 07:46:04;;;;;;;16.15;14.55;;;;;;;19.83;71.96;97541.58;1713877;81;25951;-76
2022/06/05 07:48:30;;;;;;;;;;;;;;;19.92;71.50;97540.00;1733069;81;25888;-75
2022/06/05 07:56:34;;;;;;;16.02;13.25;;;;;;;20.51;70.52;97542.40;1619587;87;27456;-75
2022/06/05 07:59:01;;;;;;;12.93;11.68;;;;;;;20.96;70.36;97541.61;1608746;87;25712;-78
2022/06/05 08:01:28;;;;;;;17.48;11.73;;;;;;;21.96;68.88;97538.97;1612894;87;25879;-77
2022/06/05 08:03:54;;;;;;;11.93;9.90;;;;;;;21.96;68.88;97538.97;1611486;86;25873;-77
2022/06/05 08:06:21;;;;;;;15.95;11.25;;;;;;;22.49;68.44;97538.70;1616608;88;25471;-76
2022/06/05 08:08:48;;;;;;;12.45;9.85;;;;;;;22.91;67.03;97539.56;1611577;87;27505;-76
2022/06/05 08:11:14;;;;;;;9.90;8.90;;;;;;;23.33;66.61;97538.91;1622443;86;26236;-76
2022/06/05 08:13:41;;;;;;;11.28;10.28;;;;;;;23.81;66.01;97539.80;1613606;87;25861;-75
2022/06/05 08:16:10;;;;;;;11.30;10.10;;;;;;;24.21;65.02;97541.80;1619721;87;26184;-74
2022/06/05 08:18:36;;;;;;;11.08;9.90;;;;;;;24.57;64.40;97543.55;1616981;87;25485;-74
2022/06/05 08:21:03;;;;;;;13.85;9.53;;;;;;;24.82;63.18;97541.79;1616594;86;27437;-75
2022/06/05 08:23:30;;;;;;;9.65;8.65;;;;;;;25.07;62.20;97541.97;1620113;87;25824;-75
2022/06/05 08:25:57;;;;;;;9.15;8.15;;;;;;;25.33;61.26;97544.57;1613762;86;25761;-75
2022/06/05 08:28:25;;;;;;;9.40;8.18;;;;;;;25.46;60.04;97538.26;1623436;87;26033;-75
2022/06/05 08:30:53;;;;;;;9.93;8.53;;;;;;;25.67;59.80;97540.66;1617035;87;25837;-77
2022/06/05 08:33:20;;;;;;;9.20;8.30;;;;;;;25.88;58.68;97537.75;1609386;87;27415;-75
2022/06/05 08:35:49;;;;;;;14.43;12.93;;;;;;;25.71;58.38;97541.70;1607854;86;25837;-77
2022/06/05 08:41:33;;;;;;;7.53;6.78;;;;;;;25.34;58.02;97535.72;1610857;86;25846;-74
2022/06/05 08:44:29;;;;;;;8.45;6.22;;;;;;;25.66;57.65;97534.88;1633783;86;25856;-74
2022/06/05 08:47:18;;;;;;;7.92;6.37;;;;;;;26.06;56.79;97531.31;1633874;86;27539;-76
2022/06/05 08:50:04;;;;;;;7.12;6.33;;;;;;;26.63;56.65;97528.16;1657079;82;25534;-77
2022/06/05 08:52:45;;;;;;;7.40;6.80;;;;;;;27.18;55.39;97537.09;1651258;86;25810;-77
2022/06/05 08:55:27;;;;;;;6.10;5.58;;;;;;;27.45;55.00;97531.41;1587542;88;47549;-76
2022/06/05 08:58:03;;;;;;;4.53;4.12;;;;;;;27.67;53.24;97527.80;1593414;87;25794;-81
2022/06/05 09:00:43;;;;;;;6.25;3.80;;;;;;;27.98;53.29;97534.72;1520870;92;27436;-78
2022/06/05 09:03:33;;;;;;;5.55;3.60;;;;;;;28.48;52.11;97531.05;1559063;90;25828;-79
2022/06/05 09:06:08;;;;;;;5.10;3.92;;;;;;;28.83;50.56;97526.38;1462040;96;25987;-77
2022/06/05 09:08:39;;;;;;;5.03;4.55;;;;;;;29.16;49.56;97523.89;1427253;98;25813;-79
2022/06/05 09:11:14;;;;;;;5.55;4.50;;;;;;;29.43;48.74;97524.13;1416995;98;25976;-82
2022/06/05 09:13:52;;;;;;;5.05;4.08;;;;;;;29.60;47.84;97521.85;1373079;103;27510;-79
2022/06/05 09:16:30;;;;;;;4.55;4.15;;;;;;;29.71;47.98;97529.50;1371783;104;25925;-77
2022/06/05 09:18:59;;;;;;;4.60;3.47;;;;;;;30.00;46.69;97527.96;1363816;102;26413;-76
2022/06/05 09:21:32;;;;;;;4.40;3.92;;;;;;;30.05;45.86;97525.00;1356799;104;25911;-75
2022/06/05 09:24:23;;;;;;;4.72;4.33;;;;;;;30.22;45.17;97516.55;1350019;106;26678;-76
2022/06/05 09:26:59;;;;;;;5.58;4.37;;;;;;;30.08;44.37;97519.56;1338336;106;27463;-74
2022/06/05 09:29:44;;;;;;;4.42;4.03;;;;;;;30.12;44.10;97525.28;1345616;104;26209;-79
2022/06/05 09:32:51;;;;;;;5.42;4.08;;;;;;;30.35;43.52;97529.41;1379317;99;26001;-78
2022/06/05 09:35:23;;;;;;;4.95;4.00;;;;;;;30.47;43.22;97521.72;1405250;100;26189;-75
2022/06/05 09:38:16;;;;;;;5.90;4.58;;;;;;;30.44;42.17;97524.59;1441700;97;25372;-75
2022/06/05 09:41:13;;;;;;;5.33;4.92;;;;;;;30.43;42.64;97524.34;1410426;101;27651;-78
2022/06/05 09:44:00;;;;;;;4.92;4.42;;;;;;;30.67;42.57;97529.91;1431482;99;25994;-74
2022/06/05 09:46:53;;;;;;;4.70;4.25;;;;;;;30.80;41.98;97523.22;1494837;93;26011;-78
2022/06/05 09:49:27;;;;;;;4.62;4.33;;;;;;;30.74;41.64;97525.98;1519953;93;25922;-75
2022/06/05 09:51:54;;;;;;;4.05;3.75;;;;;;;30.79;41.41;97527.97;1471082;97;25836;-74
2022/06/05 09:54:28;;;;;;;6.62;4.83;;;;;;;30.79;40.45;97524.41;1435941;97;27404;-75
2022/06/05 10:00:43;;;;;;;4.80;4.10;;;;;;;30.72;39.88;97517.14;1540254;92;25756;-74
2022/06/05 10:03:24;;;;;;;5.45;4.90;;;;;;;30.70;39.79;97520.84;1524551;93;25897;-78
2022/06/05 10:06:23;;;;;;;5.12;4.60;;;;;;;30.72;39.67;97518.54;1516078;93;25838;-75
2022/06/05 10:09:12;;;;;;;5.30;3.42;;;;;;;30.71;39.88;97525.27;1501924;91;27527;-75
2022/06/05 10:11:49;;;;;;;4.42;3.95;;;;;;;30.83;38.99;97514.19;1550469;90;26051;-75
2022/06/05 10:15:01;;;;;;;4.55;4.15;;;;;;;30.77;38.37;97523.92;1554953;90;25838;-76
2022/06/05 10:17:45;;;;;;;4.67;4.27;;;;;;;30.77;38.32;97520.56;1556799;88;25826;-77
2022/06/05 10:20:39;;;;;;;6.53;4.08;;;;;;;30.77;37.27;97523.34;1614601;88;25907;-74
2022/06/05 10:23:22;;;;;;;4.80;4.37;;;;;;;30.75;37.58;97506.72;1595353;87;27467;-75
2022/06/05 10:26:17;;;;;;;6.42;4.25;;;;;;;30.84;37.32;97505.25;1597875;88;25916;-77
2022/06/05 10:28:46;;;;;;;4.47;4.08;;;;;;;30.87;37.08;97504.58;1595947;89;25840;-78
2022/06/05 10:31:24;;;;;;;5.35;4.85;;;;;;;30.77;35.79;97501.63;1596173;88;25671;-74
2022/06/05 10:34:29;;;;;;;5.60;4.47;;;;;;;30.75;36.72;97503.94;1593105;89;25908;-74
2022/06/05 10:37:14;;;;;;;4.53;3.75;;;;;;;30.85;36.35;97512.45;1570406;89;27388;-74
2022/06/05 10:40:21;;;;;;;3.40;3.10;;;;;;;30.93;35.70;97509.59;1578152;89;25804;-75
2022/06/05 10:42:56;;;;;;;4.00;3.70;;;;;;;30.91;35.16;97507.75;1588316;89;25847;-75
2022/06/05 10:45:54;;;;;;;8.30;3.80;;;;;;;30.65;34.61;97505.16;1569871;88;25787;-75
2022/06/05 10:48:46;;;;;;;4.62;4.22;;;;;;;30.61;34.90;97506.17;1543030;90;26088;-75
2022/06/05 10:51:50;;;;;;;4.35;4.05;;;;;;;30.76;35.60;97498.02;1570177;90;27496;-75
2022/06/05 10:54:45;;;;;;;6.62;4.72;;;;;;;30.74;34.86;97487.80;1563094;89;25981;-75
2022/06/05 10:57:22;;;;;;;3.75;3.50;;;;;;;30.79;35.45;97488.17;1554944;90;26209;-75
2022/06/05 10:59:54;;;;;;;5.03;3.87;;;;;;;30.61;34.46;97488.06;1541448;91;26054;-75
2022/06/05 11:02:38;;;;;;;4.78;4.37;;;;;;;30.41;33.99;97491.05;1540644;92;26051;-75
2022/06/05 11:05:42;;;;;;;4.95;4.15;;;;;;;30.38;34.23;97486.16;1543080;92;27443;-74
2022/06/05 11:08:25;;;;;;;4.92;4.42;;;;;;;30.36;34.68;97480.91;1543353;91;25595;-75
2022/06/05 11:14:42;;;;;;;4.60;4.22;;;;;;;30.46;34.11;97479.70;1553496;91;26149;-77
2022/06/05 11:17:34;;;;;;;5.70;4.58;;;;;;;30.54;33.69;97478.05;1551117;92;25964;-75
2022/06/05 11:20:15;;;;;;;5.20;4.87;;;;;;;30.63;34.37;97470.44;1554088;91;27508;-75
2022/06/05 11:22:56;;;;;;;5.85;4.35;;;;;;;30.73;34.83;97476.98;1551500;91;26426;-75
2022/06/05 11:25:30;;;;;;;6.45;5.00;;;;;;;30.69;33.72;97471.84;1535270;92;26059;-74
2022/06/05 11:28:32;;;;;;;5.37;4.87;;;;;;;30.57;33.18;97471.20;1537460;92;25874;-76
2022/06/05 11:31:39;;;;;;;6.00;5.50;;;;;;;30.34;33.42;97464.30;1534758;92;25937;-77
2022/06/05 11:34:32;;;;;;;6.17;5.58;;;;;;;30.34;34.30;97470.69;1557370;90;27526;-78
2022/06/05 11:37:22;;;;;;;6.10;5.42;;;;;;;30.32;33.98;97467.42;1577019;89;25935;-75
2022/06/05 11:40:06;;;;;;;6.35;5.37;;;;;;;30.33;33.82;97466.27;1572743;90;25816;-78
2022/06/05 11:43:07;;;;;;;5.95;5.35;;;;;;;30.30;33.88;97468.36;1488948;95;25895;-75
2022/06/05 11:46:12;;;;;;;8.38;5.53;;;;;;;30.35;34.36;97468.14;1516182;94;25800;-75
2022/06/05 11:49:06;;;;;;;5.58;4.97;;;;;;;30.33;34.35;97460.70;1517007;94;27441;-75
2022/06/05 11:52:05;;;;;;;6.10;5.30;;;;;;;30.28;33.83;97466.48;1517750;94;25976;-76
2022/06/05 11:55:04;;;;;;;5.33;4.83;;;;;;;30.33;34.25;97456.52;1485468;95;25931;-75
2022/06/05 11:57:39;;;;;;;5.20;4.70;;;;;;;30.26;33.89;97445.13;1462868;96;25822;-75
2022/06/05 12:00:12;;;;;;;8.03;5.50;;;;;;;30.12;33.99;97447.34;1472769;95;26080;-75
2022/06/05 12:03:23;;;;;;;6.20;5.70;;;;;;;29.96;34.18;97443.50;1521209;92;27611;-78
2022/06/05 12:06:10;;;;;;;6.35;5.78;;;;;;;29.68;34.02;97443.14;1472808;96;25892;-75
2022/06/05 12:08:54;;;;;;;7.22;4.65;;;;;;;29.53;34.74;97452.85;1475637;96;25931;-78
2022/06/05 12:11:38;;;;;;;4.75;4.35;;;;;;;29.62;34.71;97436.94;1473818;96;26906;-75
2022/06/05 12:14:13;;;;;;;6.28;4.15;;;;;;;29.66;34.05;97440.69;1471370;96;26007;-76
2022/06/05 12:17:03;;;;;;;4.50;4.00;;;;;;;29.64;33.69;97434.64;1492245;94;27518;-75
2022/06/05 12:19:50;;;;;;;5.40;4.92;;;;;;;29.63;33.57;97426.63;1507008;94;25977;-78
2022/06/05 12:22:40;;;;;;;3.70;3.40;;;;;;;29.55;33.11;97426.92;1405053;101;25953;-75